createdAt,value
2023-05-02T00:01:44.327Z,15.40
2023-05-02T00:04:11.774Z,15.65
2023-05-02T00:06:38.958Z,15.66
2023-05-02T00:09:06.109Z,15.62
2023-05-02T00:11:33.133Z,15.54
2023-05-02T00:14:00.237Z,15.54
2023-05-02T00:16:27.492Z,15.54
2023-05-02T00:18:54.557Z,15.53
2023-05-02T00:21:22.078Z,15.49
2023-05-02T00:23:51.427Z,15.47
2023-05-02T00:26:18.423Z,15.44
2023-05-02T00:28:46.876Z,15.42
2023-05-02T00:31:14.112Z,15.33
2023-05-02T00:33:41.274Z,15.38
2023-05-02T00:36:16.085Z,15.40
2023-05-02T00:38:43.689Z,15.32
2023-05-02T00:41:10.989Z,15.28
2023-05-02T00:43:39.685Z,15.28
2023-05-02T00:46:07.995Z,15.22
2023-05-02T00:48:35.992Z,15.15
2023-05-02T00:51:05.453Z,15.13
2023-05-02T00:53:33.009Z,15.30
2023-05-02T00:56:00.024Z,15.03
2023-05-02T00:58:28.185Z,15.19
2023-05-02T01:01:24.734Z,15.26
2023-05-02T01:04:08.870Z,15.13
2023-05-02T01:06:42.094Z,15.18
2023-05-02T01:09:39.999Z,15.15
2023-05-02T01:12:17.033Z,15.14
2023-05-02T01:14:51.011Z,15.06
2023-05-02T01:17:21.449Z,14.96
2023-05-02T01:19:54.499Z,14.97
2023-05-02T01:22:24.808Z,14.92
2023-05-02T01:25:01.186Z,14.90
2023-05-02T01:27:39.832Z,14.91
2023-05-02T01:30:08.326Z,14.89
2023-05-02T01:32:38.913Z,14.91
2023-05-02T01:35:08.777Z,14.77
2023-05-02T01:37:38.333Z,14.56
2023-05-02T01:40:10.710Z,14.70
2023-05-02T01:42:40.408Z,14.53
2023-05-02T01:45:11.255Z,14.54
2023-05-02T01:47:40.955Z,14.60
2023-05-02T01:50:11.677Z,14.55
2023-05-02T01:52:40.995Z,14.51
2023-05-02T01:55:11.489Z,14.47
2023-05-02T01:57:42.422Z,14.37
2023-05-02T02:00:10.739Z,14.51
2023-05-02T02:02:42.877Z,14.32
2023-05-02T02:05:12.419Z,14.33
2023-05-02T02:07:39.545Z,14.26
2023-05-02T02:10:07.289Z,14.03
2023-05-02T02:12:43.931Z,14.12
2023-05-02T02:15:20.218Z,14.11
2023-05-02T02:17:58.733Z,14.01
2023-05-02T02:20:28.483Z,13.96
2023-05-02T02:22:57.926Z,14.04
2023-05-02T02:25:27.011Z,14.01
2023-05-02T02:27:54.680Z,13.91
2023-05-02T02:30:22.083Z,13.98
2023-05-02T02:32:49.132Z,14.07
2023-05-02T02:35:16.285Z,13.94
2023-05-02T02:38:00.974Z,13.98
2023-05-02T02:40:34.705Z,13.84
2023-05-02T02:43:36.543Z,13.95
2023-05-02T02:46:17.092Z,13.94
2023-05-02T02:48:56.670Z,13.84
2023-05-02T02:51:32.970Z,13.80
2023-05-02T02:54:29.550Z,13.85
2023-05-02T02:57:10.472Z,13.88
2023-05-02T02:59:45.268Z,13.87
2023-05-02T03:02:17.395Z,13.97
2023-05-02T03:04:47.097Z,13.95
2023-05-02T03:07:14.377Z,13.86
2023-05-02T03:09:48.555Z,13.92
2023-05-02T03:12:21.274Z,13.89
2023-05-02T03:14:50.134Z,13.95
2023-05-02T03:17:17.897Z,13.84
2023-05-02T03:19:45.989Z,13.78
2023-05-02T03:22:13.184Z,13.77
2023-05-02T03:24:40.613Z,13.82
2023-05-02T03:27:08.768Z,13.75
2023-05-02T03:29:41.084Z,13.78
2023-05-02T03:32:09.478Z,13.63
2023-05-02T03:34:38.042Z,13.92
2023-05-02T03:37:05.335Z,13.91
2023-05-02T03:39:32.789Z,13.85
2023-05-02T03:41:59.970Z,13.78
2023-05-02T03:44:27.139Z,13.66
2023-05-02T03:46:54.242Z,13.67
2023-05-02T03:49:22.007Z,13.64
2023-05-02T03:51:52.266Z,13.62
2023-05-02T03:54:24.852Z,13.67
2023-05-02T03:56:56.460Z,13.63
2023-05-02T03:59:28.926Z,13.62
2023-05-02T04:01:56.722Z,13.55
2023-05-02T04:04:33.105Z,13.54
2023-05-02T04:07:01.499Z,13.61
2023-05-02T04:09:29.525Z,13.63
2023-05-02T04:12:02.304Z,13.63
2023-05-02T04:14:30.881Z,13.76
2023-05-02T04:16:58.964Z,13.82
2023-05-02T04:19:39.644Z,13.85
2023-05-02T04:22:06.943Z,13.80
2023-05-02T04:24:37.832Z,13.76
2023-05-02T04:27:04.802Z,14.04
2023-05-02T04:29:32.727Z,14.74
2023-05-02T04:32:00.263Z,14.76
2023-05-02T04:34:29.274Z,14.65
2023-05-02T04:36:56.360Z,14.50
2023-05-02T04:39:25.534Z,14.53
2023-05-02T04:42:10.006Z,14.41
2023-05-02T04:44:43.972Z,14.07
2023-05-02T04:47:12.210Z,14.17
2023-05-02T04:49:39.364Z,14.21
2023-05-02T04:52:06.707Z,14.16
2023-05-02T04:54:34.837Z,14.21
2023-05-02T04:57:03.642Z,14.20
2023-05-02T04:59:33.268Z,14.35
2023-05-02T05:02:02.704Z,14.30
2023-05-02T05:04:29.903Z,14.41
2023-05-02T05:06:57.145Z,14.42
2023-05-02T05:09:26.883Z,14.37
2023-05-02T05:11:54.162Z,14.54
2023-05-02T05:14:22.068Z,14.34
2023-05-02T05:16:52.596Z,14.50
2023-05-02T05:19:20.235Z,14.53
2023-05-02T05:21:47.299Z,14.20
2023-05-02T05:24:17.402Z,14.37
2023-05-02T05:26:44.815Z,14.58
2023-05-02T05:29:11.903Z,14.55
2023-05-02T05:31:41.933Z,14.55
2023-05-02T05:34:10.986Z,14.47
2023-05-02T05:36:40.514Z,14.49
2023-05-02T05:39:07.882Z,14.36
2023-05-02T05:41:38.344Z,14.62
2023-05-02T05:44:08.474Z,14.65
2023-05-02T05:46:35.778Z,14.70
2023-05-02T05:49:04.170Z,14.77
2023-05-02T05:51:31.663Z,14.79
2023-05-02T05:54:00.137Z,14.62
2023-05-02T05:56:28.275Z,14.93
2023-05-02T05:59:02.134Z,14.86
2023-05-02T06:01:29.270Z,15.17
2023-05-02T06:03:56.820Z,15.21
2023-05-02T06:06:24.197Z,15.30
2023-05-02T06:08:51.281Z,15.32
2023-05-02T06:11:18.392Z,15.40
2023-05-02T06:13:45.618Z,15.41
2023-05-02T06:16:12.999Z,15.61
2023-05-02T06:18:40.311Z,15.62
2023-05-02T06:21:07.738Z,15.68
2023-05-02T06:23:36.767Z,15.74
2023-05-02T06:26:05.014Z,15.82
2023-05-02T06:28:32.262Z,15.91
2023-05-02T06:31:04.179Z,15.87
2023-05-02T06:33:32.984Z,16.06
2023-05-02T06:36:01.914Z,16.08
2023-05-02T06:38:30.047Z,16.19
2023-05-02T06:40:57.272Z,16.21
2023-05-02T06:43:24.464Z,16.24
2023-05-02T06:45:56.456Z,16.53
2023-05-02T06:48:23.694Z,16.58
2023-05-02T06:50:53.616Z,16.58
2023-05-02T06:53:20.939Z,16.64
2023-05-02T06:55:49.202Z,16.81
2023-05-02T06:58:16.461Z,16.68
2023-05-02T07:00:43.760Z,16.80
2023-05-02T07:03:13.885Z,16.82
2023-05-02T07:05:41.393Z,17.02
2023-05-02T07:08:09.316Z,17.13
2023-05-02T07:10:36.721Z,17.30
2023-05-02T07:13:03.915Z,17.35
2023-05-02T07:15:31.145Z,17.49
2023-05-02T07:17:58.421Z,17.64
2023-05-02T07:20:25.814Z,17.65
2023-05-02T07:22:52.963Z,17.70
2023-05-02T07:25:20.093Z,17.83
2023-05-02T07:27:47.187Z,17.96
2023-05-02T07:30:14.284Z,18.06
2023-05-02T07:32:41.376Z,18.14
2023-05-02T07:35:09.100Z,18.28
2023-05-02T07:37:36.934Z,18.35
2023-05-02T07:40:04.827Z,18.49
2023-05-02T07:42:33.116Z,18.60
2023-05-02T07:45:00.346Z,18.71
2023-05-02T07:47:27.764Z,18.80
2023-05-02T07:49:56.077Z,18.89
2023-05-02T07:52:23.288Z,18.99
2023-05-02T07:54:51.270Z,19.05
2023-05-02T07:57:18.958Z,19.23
2023-05-02T07:59:45.988Z,19.44
2023-05-02T08:02:14.236Z,19.47
2023-05-02T08:04:41.689Z,19.43
2023-05-02T08:07:09.025Z,19.50
2023-05-02T08:09:36.110Z,19.69
2023-05-02T08:12:03.529Z,19.68
2023-05-02T08:14:31.671Z,19.86
2023-05-02T08:16:59.390Z,19.96
2023-05-02T08:19:26.942Z,19.91
2023-05-02T08:21:54.877Z,20.01
2023-05-02T08:24:22.439Z,20.26
2023-05-02T08:26:49.536Z,20.36
2023-05-02T08:29:17.095Z,20.49
2023-05-02T08:31:44.536Z,20.60
2023-05-02T08:34:11.737Z,20.57
2023-05-02T08:36:38.873Z,20.70
2023-05-02T08:39:08.274Z,20.93
2023-05-02T08:41:35.687Z,21.10
2023-05-02T08:44:04.109Z,21.09
2023-05-02T08:46:32.639Z,21.26
2023-05-02T08:49:00.790Z,21.36
2023-05-02T08:51:32.910Z,21.36
2023-05-02T08:54:02.238Z,21.36
2023-05-02T08:56:29.618Z,21.48
2023-05-02T08:58:56.639Z,21.58
2023-05-02T09:01:24.643Z,21.73
2023-05-02T09:03:52.610Z,21.68
2023-05-02T09:06:22.004Z,21.86
2023-05-02T09:08:52.590Z,21.92
2023-05-02T09:11:21.776Z,22.01
2023-05-02T09:13:52.864Z,22.09
2023-05-02T09:16:25.893Z,22.39
2023-05-02T09:18:55.905Z,22.39
2023-05-02T09:21:27.697Z,22.42
2023-05-02T09:23:57.060Z,22.56
2023-05-02T09:26:31.944Z,22.54
2023-05-02T09:29:04.256Z,22.70
2023-05-02T09:34:16.793Z,22.62
2023-05-02T09:36:46.725Z,22.70
2023-05-02T09:39:16.590Z,22.84
2023-05-02T09:41:48.339Z,22.85
2023-05-02T09:44:18.545Z,23.00
2023-05-02T09:46:48.630Z,22.98
2023-05-02T09:49:19.076Z,23.15
2023-05-02T09:51:48.080Z,23.22
2023-05-02T09:54:37.462Z,23.24
2023-05-02T09:57:07.310Z,23.41
2023-05-02T09:59:34.620Z,23.33
2023-05-02T10:02:05.546Z,23.50
2023-05-02T10:04:34.519Z,23.48
2023-05-02T10:07:03.013Z,23.62
2023-05-02T10:09:32.919Z,23.67
2023-05-02T10:12:08.397Z,23.64
2023-05-02T10:14:46.320Z,23.82
2023-05-02T10:17:22.347Z,23.85
2023-05-02T10:19:59.383Z,23.82
2023-05-02T10:22:27.151Z,23.94
2023-05-02T10:24:55.288Z,24.07
2023-05-02T10:27:22.630Z,23.88
2023-05-02T10:29:51.975Z,24.24
2023-05-02T10:32:19.304Z,24.34
2023-05-02T10:34:47.872Z,24.37
2023-05-02T10:37:16.994Z,24.38
2023-05-02T10:39:44.141Z,24.36
2023-05-02T10:42:11.609Z,24.49
2023-05-02T10:44:41.365Z,24.52
2023-05-02T10:47:25.443Z,24.64
2023-05-02T10:50:01.701Z,24.58
2023-05-02T10:52:35.936Z,24.65
2023-05-02T10:55:20.060Z,24.71
2023-05-02T10:58:22.838Z,24.83
2023-05-02T11:00:50.098Z,24.81
2023-05-02T11:03:53.917Z,24.23
2023-05-02T11:06:21.040Z,24.82
2023-05-02T11:08:48.307Z,24.92
2023-05-02T11:11:44.254Z,25.03
2023-05-02T11:14:14.387Z,25.12
2023-05-02T11:17:00.158Z,25.17
2023-05-02T11:19:53.861Z,25.20
2023-05-02T11:22:20.996Z,25.21
2023-05-02T11:24:49.238Z,25.23
2023-05-02T11:27:38.275Z,25.23
2023-05-02T11:30:09.900Z,25.13
2023-05-02T11:32:47.466Z,25.26
2023-05-02T11:35:21.608Z,25.27
2023-05-02T11:37:59.876Z,25.33
2023-05-02T11:40:28.383Z,25.47
2023-05-02T11:42:56.485Z,25.35
2023-05-02T11:45:34.226Z,25.39
2023-05-02T11:48:01.516Z,25.55
2023-05-02T11:50:30.480Z,25.42
2023-05-02T11:52:57.824Z,25.55
2023-05-02T11:55:25.167Z,25.49
2023-05-02T11:57:52.397Z,25.82
2023-05-02T12:00:19.816Z,25.73
2023-05-02T12:02:47.983Z,25.77
2023-05-02T12:05:15.832Z,25.80
2023-05-02T12:07:49.059Z,25.71
2023-05-02T12:10:16.163Z,25.72
2023-05-02T12:12:44.565Z,25.84
2023-05-02T12:15:12.887Z,25.91
2023-05-02T12:17:46.154Z,25.95
2023-05-02T12:20:13.422Z,26.06
2023-05-02T12:22:40.676Z,25.88
2023-05-02T12:25:08.724Z,26.18
2023-05-02T12:27:36.179Z,25.80
2023-05-02T12:30:05.877Z,26.33
2023-05-02T12:32:35.299Z,26.21
2023-05-02T12:35:04.004Z,26.21
2023-05-02T12:37:31.966Z,26.25
2023-05-02T12:39:59.709Z,26.35
2023-05-02T12:42:27.354Z,26.32
2023-05-02T12:44:54.797Z,26.26
2023-05-02T12:47:25.229Z,26.35
2023-05-02T12:49:53.568Z,26.41
2023-05-02T12:52:41.603Z,26.38
2023-05-02T12:55:18.318Z,26.35
2023-05-02T12:57:46.129Z,26.47
2023-05-02T13:00:16.620Z,26.56
2023-05-02T13:02:43.798Z,26.55
2023-05-02T13:05:29.122Z,26.57
2023-05-02T13:07:59.426Z,26.63
2023-05-02T13:10:27.961Z,26.75
2023-05-02T13:12:55.707Z,26.71
2023-05-02T13:15:22.857Z,26.70
2023-05-02T13:17:52.050Z,26.71
2023-05-02T13:20:19.503Z,26.67
2023-05-02T13:22:46.599Z,26.49
2023-05-02T13:25:13.674Z,26.52
2023-05-02T13:27:41.386Z,26.62
2023-05-02T13:30:10.192Z,26.55
2023-05-02T13:32:37.786Z,26.52
2023-05-02T13:35:05.472Z,26.48
2023-05-02T13:37:32.752Z,26.45
2023-05-02T13:40:00.303Z,26.40
2023-05-02T13:42:27.620Z,26.32
2023-05-02T13:44:54.807Z,26.56
2023-05-02T13:47:22.597Z,26.43
2023-05-02T13:49:49.879Z,26.31
2023-05-02T13:52:16.968Z,26.45
2023-05-02T13:54:44.052Z,26.43
2023-05-02T13:57:12.134Z,26.20
2023-05-02T13:59:39.360Z,26.51
2023-05-02T14:02:06.643Z,26.54
2023-05-02T14:04:33.789Z,26.45
2023-05-02T14:07:01.289Z,26.61
2023-05-02T14:09:28.554Z,26.50
2023-05-02T14:11:55.989Z,26.32
2023-05-02T14:14:23.047Z,26.23
2023-05-02T14:16:50.608Z,26.16
2023-05-02T14:19:18.208Z,26.04
2023-05-02T14:21:45.470Z,26.06
2023-05-02T14:24:13.024Z,26.00
2023-05-02T14:26:40.097Z,25.53
2023-05-02T14:29:07.281Z,25.72
2023-05-02T14:31:34.529Z,25.59
2023-05-02T14:34:01.712Z,25.87
2023-05-02T14:36:28.794Z,25.80
2023-05-02T14:38:55.715Z,25.64
2023-05-02T14:41:24.232Z,25.57
2023-05-02T14:43:52.634Z,25.61
2023-05-02T14:46:19.778Z,25.54
2023-05-02T14:48:46.994Z,25.43
2023-05-02T14:51:14.066Z,25.29
2023-05-02T14:53:41.381Z,25.52
2023-05-02T14:56:13.179Z,25.52
2023-05-02T14:58:40.241Z,25.59
2023-05-02T15:01:07.386Z,25.64
2023-05-02T15:03:36.401Z,25.63
2023-05-02T15:06:08.984Z,25.53
2023-05-02T15:08:37.318Z,25.48
2023-05-02T15:11:04.386Z,25.44
2023-05-02T15:13:31.610Z,25.40
2023-05-02T15:15:58.687Z,25.50
2023-05-02T15:18:25.792Z,25.44
2023-05-02T15:20:52.920Z,25.39
2023-05-02T15:23:19.900Z,25.41
2023-05-02T15:25:47.595Z,25.41
2023-05-02T15:28:14.641Z,25.31
2023-05-02T15:30:41.947Z,25.27
2023-05-02T15:33:09.436Z,25.24
2023-05-02T15:35:37.025Z,25.24
2023-05-02T15:38:04.172Z,25.14
2023-05-02T15:40:31.297Z,25.17
2023-05-02T15:42:58.363Z,25.21
2023-05-02T15:45:25.622Z,25.18
2023-05-02T15:47:52.964Z,25.19
2023-05-02T15:50:20.017Z,25.06
2023-05-02T15:52:47.583Z,25.08
2023-05-02T15:55:14.792Z,25.16
2023-05-02T15:57:41.943Z,25.14
2023-05-02T16:00:16.099Z,25.10
2023-05-02T16:02:43.105Z,25.10
2023-05-02T16:05:10.197Z,24.93
2023-05-02T16:07:38.756Z,24.85
2023-05-02T16:10:07.744Z,24.81
2023-05-02T16:12:34.984Z,24.81
2023-05-02T16:15:03.996Z,24.83
2023-05-02T16:17:31.513Z,24.73
2023-05-02T16:19:58.804Z,24.74
2023-05-02T16:22:27.894Z,24.75
2023-05-02T16:24:56.221Z,24.73
2023-05-02T16:27:24.565Z,24.64
2023-05-02T16:29:51.668Z,24.51
2023-05-02T16:32:19.098Z,24.39
2023-05-02T16:34:46.318Z,24.45
2023-05-02T16:37:13.855Z,24.35
2023-05-02T16:39:40.929Z,24.28
2023-05-02T16:42:08.099Z,24.26
2023-05-02T16:44:35.611Z,24.05
2023-05-02T16:47:02.882Z,24.08
2023-05-02T16:49:30.045Z,23.99
2023-05-02T16:51:57.785Z,23.98
2023-05-02T16:54:25.425Z,23.79
2023-05-02T16:56:52.486Z,23.72
2023-05-02T16:59:19.610Z,23.64
2023-05-02T17:01:46.775Z,23.57
2023-05-02T17:04:13.895Z,23.43
2023-05-02T17:06:41.214Z,23.37
2023-05-02T17:09:08.411Z,22.98
2023-05-02T17:11:36.355Z,23.16
2023-05-02T17:14:03.476Z,23.04
2023-05-02T17:16:30.639Z,23.03
2023-05-02T17:18:57.790Z,23.03
2023-05-02T17:21:25.001Z,23.02
2023-05-02T17:23:52.215Z,22.89
2023-05-02T17:26:19.438Z,22.79
2023-05-02T17:28:46.519Z,22.60
2023-05-02T17:31:13.704Z,22.43
2023-05-02T17:33:42.353Z,22.43
2023-05-02T17:36:09.819Z,22.35
2023-05-02T17:38:36.994Z,22.37
2023-05-02T17:41:04.207Z,22.39
2023-05-02T17:43:31.454Z,22.27
2023-05-02T17:45:58.544Z,22.17
2023-05-02T17:48:25.687Z,22.21
2023-05-02T17:50:53.531Z,22.04
2023-05-02T17:53:20.629Z,22.08
2023-05-02T17:55:47.740Z,21.94
2023-05-02T17:58:15.923Z,21.91
2023-05-02T18:00:43.747Z,21.74
2023-05-02T18:03:10.991Z,21.83
2023-05-02T18:05:39.680Z,21.70
2023-05-02T18:08:09.947Z,21.77
2023-05-02T18:10:37.989Z,21.73
2023-05-02T18:13:05.171Z,21.64
2023-05-02T18:15:32.282Z,21.50
2023-05-02T18:17:59.326Z,21.55
2023-05-02T18:20:26.512Z,21.59
2023-05-02T18:22:57.369Z,21.50
2023-05-02T18:25:24.515Z,21.46
2023-05-02T18:27:51.566Z,21.40
2023-05-02T18:30:20.193Z,21.19
2023-05-02T18:32:47.439Z,21.14
2023-05-02T18:35:14.556Z,21.28
2023-05-02T18:37:41.679Z,21.14
2023-05-02T18:40:09.142Z,21.23
2023-05-02T18:42:36.438Z,20.89
2023-05-02T18:45:05.558Z,21.15
2023-05-02T18:47:33.863Z,21.13
2023-05-02T18:50:01.317Z,20.93
2023-05-02T18:52:30.823Z,21.08
2023-05-02T18:54:57.894Z,20.82
2023-05-02T18:57:25.447Z,20.73
2023-05-02T18:59:52.511Z,20.73
2023-05-02T19:02:19.724Z,20.66
2023-05-02T19:04:46.910Z,20.59
2023-05-02T19:07:14.587Z,20.47
2023-05-02T19:09:41.643Z,20.49
2023-05-02T19:12:08.667Z,20.45
2023-05-02T19:14:39.808Z,20.00
2023-05-02T19:17:07.044Z,20.12
2023-05-02T19:19:34.179Z,20.14
2023-05-02T19:22:01.241Z,20.21
2023-05-02T19:24:29.352Z,20.03
2023-05-02T19:26:56.568Z,19.70
2023-05-02T19:29:23.706Z,20.07
2023-05-02T19:31:50.884Z,19.38
2023-05-02T19:34:18.346Z,19.87
2023-05-02T19:36:45.684Z,19.90
2023-05-02T19:39:13.387Z,19.53
2023-05-02T19:41:42.556Z,19.63
2023-05-02T19:44:09.880Z,19.80
2023-05-02T19:46:37.125Z,19.54
2023-05-02T19:49:04.283Z,19.40
2023-05-02T19:51:33.929Z,19.58
2023-05-02T19:54:01.120Z,19.18
2023-05-02T19:56:28.899Z,19.45
2023-05-02T19:58:59.511Z,18.63
2023-05-02T20:01:29.314Z,19.20
2023-05-02T20:03:56.646Z,19.08
2023-05-02T20:06:23.960Z,19.16
2023-05-02T20:08:52.515Z,19.17
2023-05-02T20:11:19.832Z,18.96
2023-05-02T20:13:47.026Z,19.08
2023-05-02T20:16:15.136Z,18.92
2023-05-02T20:18:42.282Z,18.91
2023-05-02T20:21:09.401Z,18.85
2023-05-02T20:23:36.595Z,18.90
2023-05-02T20:26:03.751Z,18.59
2023-05-02T20:28:30.867Z,18.56
2023-05-02T20:30:58.076Z,18.46
2023-05-02T20:33:27.522Z,18.55
2023-05-02T20:35:57.407Z,18.49
2023-05-02T20:38:24.417Z,18.51
2023-05-02T20:40:51.582Z,18.59
2023-05-02T20:43:23.158Z,18.56
2023-05-02T20:45:50.279Z,18.46
2023-05-02T20:48:18.286Z,18.49
2023-05-02T20:50:54.796Z,18.09
2023-05-02T20:53:23.928Z,17.75
2023-05-02T20:55:51.381Z,17.82
2023-05-02T20:58:18.494Z,18.38
2023-05-02T21:00:52.238Z,18.11
2023-05-02T21:03:22.343Z,18.22
2023-05-02T21:05:53.630Z,18.15
2023-05-02T21:08:21.317Z,18.15
2023-05-02T21:10:48.677Z,18.15
2023-05-02T21:13:15.863Z,17.99
2023-05-02T21:15:43.080Z,18.08
2023-05-02T21:18:10.170Z,17.94
2023-05-02T21:20:38.373Z,17.80
2023-05-02T21:23:05.836Z,18.05
2023-05-02T21:25:32.989Z,17.88
2023-05-02T21:28:00.250Z,18.03
2023-05-02T21:30:27.416Z,17.95
2023-05-02T21:32:54.580Z,17.77
2023-05-02T21:35:21.767Z,17.77
2023-05-02T21:37:48.927Z,17.71
2023-05-02T21:40:16.099Z,17.60
2023-05-02T21:42:43.249Z,17.51
2023-05-02T21:45:11.324Z,17.43
2023-05-02T21:47:38.472Z,17.43
2023-05-02T21:50:06.097Z,17.48
2023-05-02T21:52:33.370Z,16.68
2023-05-02T21:55:01.259Z,17.22
2023-05-02T21:57:29.095Z,17.36
2023-05-02T21:59:56.202Z,17.43
2023-05-02T22:02:23.832Z,17.23
2023-05-02T22:04:51.068Z,17.32
2023-05-02T22:07:18.147Z,17.13
2023-05-02T22:09:45.334Z,17.16
2023-05-02T22:12:12.338Z,17.12
2023-05-02T22:14:45.438Z,17.13
2023-05-02T22:17:13.656Z,17.18
2023-05-02T22:19:41.977Z,17.10
2023-05-02T22:22:09.064Z,17.17
2023-05-02T22:24:36.143Z,17.09
2023-05-02T22:27:03.489Z,16.99
2023-05-02T22:29:30.635Z,17.11
2023-05-02T22:31:57.776Z,17.16
2023-05-02T22:34:24.981Z,17.07
2023-05-02T22:36:52.207Z,17.20
2023-05-02T22:39:20.466Z,17.18
2023-05-02T22:41:47.452Z,17.08
2023-05-02T22:44:14.594Z,16.38
2023-05-02T22:46:41.670Z,17.00
2023-05-02T22:49:11.987Z,16.60
2023-05-02T22:51:40.372Z,16.84
2023-05-02T22:54:08.538Z,16.98
2023-05-02T22:56:35.723Z,16.73
2023-05-02T22:59:02.893Z,16.79
2023-05-02T23:01:30.146Z,16.72
2023-05-02T23:03:57.450Z,16.76
2023-05-02T23:06:24.677Z,16.59
2023-05-02T23:08:51.778Z,16.59
2023-05-02T23:11:18.995Z,16.45
2023-05-02T23:13:46.100Z,15.71
2023-05-02T23:16:13.233Z,16.38
2023-05-02T23:18:40.428Z,16.29
2023-05-02T23:21:14.297Z,16.46
2023-05-02T23:23:41.922Z,16.39
2023-05-02T23:26:10.675Z,16.27
2023-05-02T23:28:37.718Z,16.41
2023-05-02T23:31:05.472Z,16.44
2023-05-02T23:33:34.443Z,16.44
2023-05-02T23:36:02.564Z,16.40
2023-05-02T23:38:29.677Z,16.45
2023-05-02T23:40:57.093Z,16.39
2023-05-02T23:43:24.314Z,16.25
2023-05-02T23:45:51.554Z,16.47
2023-05-02T23:48:18.812Z,16.49
2023-05-02T23:50:45.863Z,16.39
2023-05-02T23:53:13.048Z,16.47
2023-05-02T23:55:40.221Z,16.53
2023-05-02T23:58:07.463Z,16.43
